THA992 KMCO-KJFK
Flight info
| Callsign | THA992 |
|---|---|
| Flight time | 1h 50m |
| Altitude | 37000 |
| Route | FATHE4 VIYAP Q87 JROSS JOHAR Q109 DFENC SAWED Q108 SIE CAMRN5 |
| Aircraft | A343/H-SDE2E3FGHIJ4J5M1RWXY/LB1D1 |
Departure
| Time | 2026-05-09 06:36 |
|---|---|
| Airport | Orlando International Airport (KMCO) |
Arrival
| Time | 2026-05-09 08:27 |
|---|---|
| Airport | John F. Kennedy International Airport (KJFK) |
| Time | Latitude | Longitude | Altitude | Speed | Heading |
|---|---|---|---|---|---|
| 2026-05-09 06:11 | 28.42550 | -81.31560 | 105 ft | 0 kts | 36° |
| 2026-05-09 06:22 | 28.42546 | -81.31564 | 105 ft | 2 kts | 37° |
| 2026-05-09 06:22 | 28.42532 | -81.31575 | 106 ft | 2 kts | 35° |
| 2026-05-09 06:22 | 28.42519 | -81.31585 | 104 ft | 2 kts | 35° |
| 2026-05-09 06:22 | 28.42507 | -81.31598 | 106 ft | 2 kts | 79° |
| 2026-05-09 06:23 | 28.42506 | -81.31602 | 106 ft | 0 kts | 90° |
| 2026-05-09 06:26 | 28.42506 | -81.31600 | 108 ft | 1 kts | 90° |
| 2026-05-09 06:26 | 28.42506 | -81.31569 | 108 ft | 6 kts | 90° |
| 2026-05-09 06:26 | 28.42515 | -81.31515 | 106 ft | 8 kts | 76° |
| 2026-05-09 06:26 | 28.42530 | -81.31440 | 107 ft | 11 kts | 77° |
| 2026-05-09 06:27 | 28.42539 | -81.31351 | 107 ft | 12 kts | 90° |
| 2026-05-09 06:27 | 28.42536 | -81.31250 | 107 ft | 8 kts | 101° |
| 2026-05-09 06:27 | 28.42504 | -81.31238 | 106 ft | 13 kts | 182° |
| 2026-05-09 06:27 | 28.42426 | -81.31267 | 106 ft | 5 kts | 202° |
| 2026-05-09 06:28 | 28.42383 | -81.31278 | 106 ft | 7 kts | 184° |
| 2026-05-09 06:28 | 28.42324 | -81.31280 | 106 ft | 10 kts | 181° |
| 2026-05-09 06:28 | 28.42271 | -81.31244 | 106 ft | 10 kts | 113° |
| 2026-05-09 06:28 | 28.42255 | -81.31160 | 104 ft | 12 kts | 100° |
| 2026-05-09 06:29 | 28.42238 | -81.31057 | 106 ft | 14 kts | 100° |
| 2026-05-09 06:29 | 28.42235 | -81.30949 | 106 ft | 14 kts | 87° |
| 2026-05-09 06:29 | 28.42242 | -81.30831 | 108 ft | 16 kts | 84° |
| 2026-05-09 06:29 | 28.42253 | -81.30703 | 108 ft | 17 kts | 85° |
| 2026-05-09 06:30 | 28.42262 | -81.30561 | 108 ft | 19 kts | 85° |
| 2026-05-09 06:30 | 28.42273 | -81.30399 | 107 ft | 23 kts | 88° |
| 2026-05-09 06:30 | 28.42277 | -81.30233 | 108 ft | 18 kts | 90° |
| 2026-05-09 06:30 | 28.42280 | -81.30087 | 109 ft | 19 kts | 89° |
| 2026-05-09 06:31 | 28.42281 | -81.29932 | 111 ft | 20 kts | 89° |
| 2026-05-09 06:31 | 28.42280 | -81.29841 | 110 ft | 2 kts | 100° |
| 2026-05-09 06:31 | 28.42251 | -81.29802 | 107 ft | 13 kts | 148° |
| 2026-05-09 06:31 | 28.42162 | -81.29789 | 107 ft | 14 kts | 179° |
| 2026-05-09 06:32 | 28.42057 | -81.29787 | 107 ft | 16 kts | 181° |
| 2026-05-09 06:32 | 28.41939 | -81.29790 | 107 ft | 18 kts | 179° |
| 2026-05-09 06:32 | 28.41805 | -81.29788 | 104 ft | 20 kts | 179° |
| 2026-05-09 06:33 | 28.41494 | -81.29783 | 106 ft | 24 kts | 179° |
| 2026-05-09 06:33 | 28.41317 | -81.29783 | 106 ft | 26 kts | 180° |
| 2026-05-09 06:33 | 28.41145 | -81.29781 | 105 ft | 25 kts | 179° |
| 2026-05-09 06:34 | 28.40907 | -81.29779 | 106 ft | 11 kts | 179° |
| 2026-05-09 06:34 | 28.40838 | -81.29760 | 106 ft | 7 kts | 133° |
| 2026-05-09 06:34 | 28.40822 | -81.29692 | 105 ft | 10 kts | 93° |
| 2026-05-09 06:34 | 28.40822 | -81.29674 | 104 ft | 0 kts | 90° |
| 2026-05-09 06:35 | 28.40822 | -81.29653 | 104 ft | 9 kts | 90° |
| 2026-05-09 06:35 | 28.40839 | -81.29585 | 104 ft | 8 kts | 31° |
| 2026-05-09 06:35 | 28.40895 | -81.29563 | 103 ft | 9 kts | 17° |
| 2026-05-09 06:35 | 28.40963 | -81.29561 | 107 ft | 11 kts | 359° |
| 2026-05-09 06:36 | 28.41168 | -81.29562 | 106 ft | 61 kts | 359° |
| 2026-05-09 06:36 | 28.41836 | -81.29571 | 109 ft | 129 kts | 359° |
| 2026-05-09 06:36 | 28.42909 | -81.29589 | 323 ft | 167 kts | 358° |
| 2026-05-09 06:36 | 28.44089 | -81.29595 | 1045 ft | 170 kts | 5° |
| 2026-05-09 06:37 | 28.45270 | -81.29305 | 1683 ft | 184 kts | 19° |
| 2026-05-09 06:37 | 28.46513 | -81.28655 | 1939 ft | 215 kts | 30° |
| 2026-05-09 06:37 | 28.47896 | -81.27735 | 2245 ft | 245 kts | 31° |
| 2026-05-09 06:37 | 28.49437 | -81.26697 | 2701 ft | 265 kts | 31° |
| 2026-05-09 06:38 | 28.51075 | -81.25671 | 3469 ft | 270 kts | 23° |
| 2026-05-09 06:38 | 28.52905 | -81.25199 | 4291 ft | 273 kts | 4° |
| 2026-05-09 06:38 | 28.54823 | -81.25072 | 5049 ft | 278 kts | 359° |
| 2026-05-09 06:38 | 28.56752 | -81.25128 | 5844 ft | 282 kts | 356° |
| 2026-05-09 06:39 | 28.58724 | -81.25285 | 6563 ft | 284 kts | 352° |
| 2026-05-09 06:39 | 28.60698 | -81.25579 | 6959 ft | 286 kts | 350° |
| 2026-05-09 06:39 | 28.62660 | -81.25899 | 6993 ft | 288 kts | 349° |
| 2026-05-09 06:39 | 28.64654 | -81.26197 | 7250 ft | 291 kts | 351° |
| 2026-05-09 06:40 | 28.66679 | -81.26471 | 7995 ft | 294 kts | 351° |
| 2026-05-09 06:40 | 28.68709 | -81.26742 | 8984 ft | 294 kts | 350° |
| 2026-05-09 06:40 | 28.70742 | -81.27016 | 9954 ft | 295 kts | 349° |
| 2026-05-09 06:40 | 28.72828 | -81.27302 | 10528 ft | 311 kts | 349° |
| 2026-05-09 06:41 | 28.75060 | -81.27613 | 10848 ft | 333 kts | 349° |
| 2026-05-09 06:41 | 28.77408 | -81.27938 | 11154 ft | 354 kts | 349° |
| 2026-05-09 06:41 | 28.79921 | -81.28282 | 11552 ft | 369 kts | 349° |
| 2026-05-09 06:41 | 28.82504 | -81.28632 | 12131 ft | 376 kts | 349° |
| 2026-05-09 06:42 | 28.85124 | -81.28985 | 12773 ft | 382 kts | 349° |
| 2026-05-09 06:42 | 28.87803 | -81.29240 | 13399 ft | 389 kts | 352° |
| 2026-05-09 06:42 | 28.90490 | -81.29442 | 13992 ft | 394 kts | 352° |
| 2026-05-09 06:42 | 28.93236 | -81.29652 | 14614 ft | 396 kts | 351° |
| 2026-05-09 06:43 | 28.96001 | -81.29874 | 15267 ft | 397 kts | 351° |
| 2026-05-09 06:43 | 28.98763 | -81.30101 | 15943 ft | 398 kts | 349° |
| 2026-05-09 06:43 | 29.01534 | -81.30363 | 16611 ft | 399 kts | 348° |
| 2026-05-09 06:43 | 29.04306 | -81.30676 | 17277 ft | 400 kts | 347° |
| 2026-05-09 06:44 | 29.07054 | -81.30991 | 17934 ft | 402 kts | 347° |
| 2026-05-09 06:44 | 29.09861 | -81.31310 | 18559 ft | 404 kts | 347° |
| 2026-05-09 06:44 | 29.12683 | -81.31603 | 19092 ft | 410 kts | 349° |
| 2026-05-09 06:44 | 29.15548 | -81.31774 | 19626 ft | 415 kts | 350° |
| 2026-05-09 06:45 | 29.18414 | -81.31920 | 20159 ft | 418 kts | 350° |
| 2026-05-09 06:45 | 29.21334 | -81.32076 | 20718 ft | 422 kts | 349° |
| 2026-05-09 06:45 | 29.24283 | -81.32241 | 21283 ft | 425 kts | 349° |
| 2026-05-09 06:45 | 29.27251 | -81.32413 | 21882 ft | 428 kts | 349° |
| 2026-05-09 06:46 | 29.30245 | -81.32589 | 22468 ft | 431 kts | 349° |
| 2026-05-09 06:46 | 29.33257 | -81.32768 | 23028 ft | 435 kts | 349° |
| 2026-05-09 06:46 | 29.36264 | -81.32949 | 23571 ft | 438 kts | 349° |
| 2026-05-09 06:46 | 29.39330 | -81.33134 | 24077 ft | 442 kts | 349° |
| 2026-05-09 06:47 | 29.42419 | -81.33319 | 24571 ft | 444 kts | 349° |
| 2026-05-09 06:47 | 29.45515 | -81.33505 | 25086 ft | 447 kts | 348° |
| 2026-05-09 06:47 | 29.48638 | -81.33694 | 25609 ft | 450 kts | 348° |
| 2026-05-09 06:47 | 29.51737 | -81.33881 | 26115 ft | 453 kts | 348° |
| 2026-05-09 06:48 | 29.54903 | -81.34072 | 26665 ft | 456 kts | 348° |
| 2026-05-09 06:48 | 29.58100 | -81.34265 | 27215 ft | 458 kts | 348° |
| 2026-05-09 06:48 | 29.61294 | -81.34459 | 27704 ft | 461 kts | 348° |
| 2026-05-09 06:48 | 29.64515 | -81.34655 | 28185 ft | 465 kts | 348° |
| 2026-05-09 06:49 | 29.67716 | -81.34844 | 28656 ft | 468 kts | 348° |
| 2026-05-09 06:49 | 29.70991 | -81.35029 | 29129 ft | 472 kts | 348° |
| 2026-05-09 06:49 | 29.74286 | -81.35216 | 29589 ft | 475 kts | 348° |
| 2026-05-09 06:49 | 29.77607 | -81.35404 | 30033 ft | 478 kts | 348° |
| 2026-05-09 06:50 | 29.80949 | -81.35595 | 30416 ft | 481 kts | 348° |
| 2026-05-09 06:50 | 29.84268 | -81.35784 | 30821 ft | 483 kts | 348° |
| 2026-05-09 06:50 | 29.87646 | -81.35978 | 31196 ft | 486 kts | 348° |
| 2026-05-09 06:50 | 29.91034 | -81.36172 | 31556 ft | 488 kts | 348° |
| 2026-05-09 06:51 | 29.94440 | -81.36368 | 31906 ft | 491 kts | 348° |
| 2026-05-09 06:51 | 29.97876 | -81.36565 | 32239 ft | 493 kts | 348° |
| 2026-05-09 06:51 | 30.01274 | -81.36761 | 32563 ft | 495 kts | 348° |
| 2026-05-09 06:51 | 30.04735 | -81.36961 | 32867 ft | 498 kts | 348° |
| 2026-05-09 06:52 | 30.08203 | -81.37160 | 33175 ft | 500 kts | 348° |
| 2026-05-09 06:52 | 30.11678 | -81.37359 | 33654 ft | 499 kts | 348° |
| 2026-05-09 06:52 | 30.15150 | -81.37558 | 34059 ft | 499 kts | 347° |
| 2026-05-09 06:52 | 30.18572 | -81.37755 | 34409 ft | 498 kts | 347° |
| 2026-05-09 06:53 | 30.22023 | -81.37952 | 34846 ft | 494 kts | 347° |
| 2026-05-09 06:53 | 30.25451 | -81.38148 | 35285 ft | 491 kts | 347° |
| 2026-05-09 06:53 | 30.28872 | -81.38345 | 35726 ft | 488 kts | 346° |
| 2026-05-09 06:53 | 30.32209 | -81.38538 | 36129 ft | 485 kts | 346° |
| 2026-05-09 06:54 | 30.35577 | -81.38734 | 36494 ft | 484 kts | 346° |
| 2026-05-09 06:54 | 30.38947 | -81.38930 | 36855 ft | 482 kts | 346° |
| 2026-05-09 06:54 | 30.42293 | -81.39125 | 37226 ft | 480 kts | 346° |
| 2026-05-09 06:54 | 30.45629 | -81.39319 | 37579 ft | 478 kts | 346° |
| 2026-05-09 06:55 | 30.48915 | -81.39508 | 37939 ft | 476 kts | 346° |
| 2026-05-09 06:55 | 30.52220 | -81.39680 | 38281 ft | 475 kts | 346° |
| 2026-05-09 06:55 | 30.55527 | -81.39850 | 38626 ft | 473 kts | 346° |
| 2026-05-09 06:55 | 30.58809 | -81.40020 | 38890 ft | 471 kts | 346° |
| 2026-05-09 06:56 | 30.62088 | -81.40193 | 39105 ft | 471 kts | 346° |
| 2026-05-09 06:56 | 30.65333 | -81.40365 | 39294 ft | 471 kts | 346° |
| 2026-05-09 06:56 | 30.68614 | -81.40539 | 39518 ft | 470 kts | 345° |
| 2026-05-09 06:56 | 30.71884 | -81.40712 | 39743 ft | 469 kts | 345° |
| 2026-05-09 06:57 | 30.74042 | -81.40826 | 39879 ft | 469 kts | 345° |
| 2026-05-09 06:57 | 30.77311 | -81.41000 | 40071 ft | 469 kts | 345° |
| 2026-05-09 06:57 | 30.80579 | -81.41174 | 40247 ft | 469 kts | 345° |
| 2026-05-09 06:57 | 30.83845 | -81.41348 | 40423 ft | 468 kts | 345° |
| 2026-05-09 06:58 | 30.87067 | -81.41519 | 40593 ft | 468 kts | 345° |
| 2026-05-09 06:58 | 30.90324 | -81.41693 | 40754 ft | 468 kts | 345° |
| 2026-05-09 06:58 | 30.93594 | -81.41867 | 40913 ft | 468 kts | 345° |
| 2026-05-09 06:58 | 30.96821 | -81.42040 | 41014 ft | 468 kts | 345° |
| 2026-05-09 06:59 | 31.03328 | -81.42386 | 40992 ft | 467 kts | 345° |
| 2026-05-09 06:59 | 31.09824 | -81.42734 | 40989 ft | 466 kts | 345° |
| 2026-05-09 07:00 | 31.16320 | -81.43082 | 40989 ft | 466 kts | 345° |
| 2026-05-09 07:00 | 31.22814 | -81.43187 | 41008 ft | 479 kts | 353° |
| 2026-05-09 07:01 | 31.26166 | -81.42558 | 41024 ft | 496 kts | 2° |
| 2026-05-09 07:01 | 31.29501 | -81.41261 | 41013 ft | 511 kts | 11° |
| 2026-05-09 07:01 | 31.36029 | -81.37880 | 41005 ft | 517 kts | 13° |
| 2026-05-09 07:02 | 31.42546 | -81.34265 | 40995 ft | 518 kts | 14° |
| 2026-05-09 07:02 | 31.49068 | -81.30656 | 40987 ft | 518 kts | 13° |
| 2026-05-09 07:03 | 31.55566 | -81.27100 | 40986 ft | 517 kts | 13° |
| 2026-05-09 07:03 | 31.62091 | -81.23543 | 40977 ft | 516 kts | 13° |
| 2026-05-09 07:04 | 31.68614 | -81.19988 | 40970 ft | 516 kts | 13° |
| 2026-05-09 07:04 | 31.75102 | -81.16450 | 40975 ft | 516 kts | 13° |
| 2026-05-09 07:05 | 31.81627 | -81.12874 | 40976 ft | 516 kts | 13° |
| 2026-05-09 07:05 | 31.88152 | -81.09294 | 40972 ft | 517 kts | 13° |
| 2026-05-09 07:06 | 31.94641 | -81.05729 | 40971 ft | 517 kts | 13° |
| 2026-05-09 07:06 | 32.01137 | -81.02157 | 40971 ft | 517 kts | 13° |
| 2026-05-09 07:07 | 32.07656 | -80.98528 | 40973 ft | 517 kts | 13° |
| 2026-05-09 07:07 | 32.14164 | -80.94868 | 40978 ft | 516 kts | 13° |
| 2026-05-09 07:08 | 32.20622 | -80.91238 | 41005 ft | 516 kts | 13° |
| 2026-05-09 07:08 | 32.27105 | -80.87596 | 41004 ft | 516 kts | 13° |
| 2026-05-09 07:09 | 32.33603 | -80.83941 | 41013 ft | 515 kts | 13° |
| 2026-05-09 07:09 | 32.40048 | -80.80308 | 40991 ft | 514 kts | 13° |
| 2026-05-09 07:10 | 32.46521 | -80.76657 | 40988 ft | 514 kts | 13° |
| 2026-05-09 07:10 | 32.52955 | -80.73023 | 40991 ft | 514 kts | 13° |
| 2026-05-09 07:11 | 32.59419 | -80.69364 | 40995 ft | 514 kts | 13° |
| 2026-05-09 07:11 | 32.65884 | -80.65699 | 41000 ft | 514 kts | 13° |
| 2026-05-09 07:12 | 32.72076 | -80.61227 | 41017 ft | 541 kts | 29° |
| 2026-05-09 07:12 | 32.77607 | -80.54975 | 41019 ft | 551 kts | 35° |
| 2026-05-09 07:13 | 32.82919 | -80.48423 | 41030 ft | 553 kts | 36° |
| 2026-05-09 07:13 | 32.88265 | -80.41758 | 41020 ft | 555 kts | 36° |
| 2026-05-09 07:14 | 32.93624 | -80.35123 | 41007 ft | 555 kts | 36° |
| 2026-05-09 07:14 | 32.98965 | -80.28532 | 41015 ft | 555 kts | 36° |
| 2026-05-09 07:15 | 33.04340 | -80.21898 | 41013 ft | 555 kts | 36° |
| 2026-05-09 07:15 | 33.09674 | -80.15302 | 40977 ft | 555 kts | 36° |
| 2026-05-09 07:16 | 33.15027 | -80.08665 | 41008 ft | 554 kts | 36° |
| 2026-05-09 07:16 | 33.20381 | -80.02015 | 41013 ft | 554 kts | 36° |
| 2026-05-09 07:17 | 33.25705 | -79.95393 | 41008 ft | 554 kts | 36° |
| 2026-05-09 07:17 | 33.31060 | -79.88718 | 41012 ft | 555 kts | 36° |
| 2026-05-09 07:18 | 33.36380 | -79.82075 | 41019 ft | 556 kts | 36° |
| 2026-05-09 07:18 | 33.41739 | -79.75368 | 41025 ft | 556 kts | 36° |
| 2026-05-09 07:19 | 33.47063 | -79.68690 | 41032 ft | 556 kts | 36° |
| 2026-05-09 07:19 | 33.52409 | -79.61975 | 41087 ft | 556 kts | 36° |
| 2026-05-09 07:20 | 33.57757 | -79.55247 | 41036 ft | 557 kts | 36° |
| 2026-05-09 07:20 | 33.63080 | -79.48536 | 41037 ft | 558 kts | 36° |
| 2026-05-09 07:21 | 33.68439 | -79.41764 | 41019 ft | 557 kts | 36° |
| 2026-05-09 07:21 | 33.73755 | -79.35032 | 41045 ft | 557 kts | 36° |
| 2026-05-09 07:22 | 33.79095 | -79.28260 | 41027 ft | 557 kts | 36° |
| 2026-05-09 07:22 | 33.84394 | -79.21527 | 41027 ft | 557 kts | 37° |
| 2026-05-09 07:23 | 33.89740 | -79.14720 | 41026 ft | 557 kts | 37° |
| 2026-05-09 07:23 | 33.95035 | -79.07966 | 41028 ft | 557 kts | 37° |
| 2026-05-09 07:24 | 34.00356 | -79.01165 | 41048 ft | 557 kts | 37° |
| 2026-05-09 07:24 | 34.05674 | -78.94352 | 41036 ft | 556 kts | 37° |
| 2026-05-09 07:25 | 34.10947 | -78.87586 | 41042 ft | 556 kts | 37° |
| 2026-05-09 07:25 | 34.16258 | -78.80760 | 41037 ft | 556 kts | 37° |
| 2026-05-09 07:26 | 34.21547 | -78.73947 | 41110 ft | 556 kts | 37° |
| 2026-05-09 07:26 | 34.26814 | -78.67148 | 41034 ft | 556 kts | 37° |
| 2026-05-09 07:27 | 34.32108 | -78.60399 | 41045 ft | 550 kts | 33° |
| 2026-05-09 07:27 | 34.37927 | -78.54521 | 41045 ft | 541 kts | 27° |
| 2026-05-09 07:28 | 34.43840 | -78.48907 | 41037 ft | 539 kts | 27° |
| 2026-05-09 07:28 | 34.49741 | -78.43358 | 41040 ft | 539 kts | 26° |
| 2026-05-09 07:29 | 34.55641 | -78.37784 | 41038 ft | 539 kts | 27° |
| 2026-05-09 07:29 | 34.61560 | -78.32165 | 41035 ft | 539 kts | 27° |
| 2026-05-09 07:30 | 34.67480 | -78.26528 | 41032 ft | 540 kts | 27° |
| 2026-05-09 07:30 | 34.73368 | -78.20912 | 41036 ft | 541 kts | 27° |
| 2026-05-09 07:31 | 34.79303 | -78.15242 | 41036 ft | 542 kts | 27° |
| 2026-05-09 07:31 | 34.85209 | -78.09587 | 41038 ft | 542 kts | 27° |
| 2026-05-09 07:32 | 34.91150 | -78.03914 | 41097 ft | 542 kts | 27° |
| 2026-05-09 07:32 | 34.97082 | -77.98249 | 41045 ft | 545 kts | 27° |
| 2026-05-09 07:33 | 35.06061 | -77.89648 | 41045 ft | 544 kts | 27° |
| 2026-05-09 07:34 | 35.11969 | -77.83970 | 41047 ft | 544 kts | 27° |
| 2026-05-09 07:34 | 35.17925 | -77.78241 | 41056 ft | 545 kts | 27° |
| 2026-05-09 07:35 | 35.23913 | -77.72474 | 41054 ft | 547 kts | 27° |
| 2026-05-09 07:35 | 35.29860 | -77.66729 | 41055 ft | 547 kts | 27° |
| 2026-05-09 07:36 | 35.35847 | -77.60933 | 41054 ft | 547 kts | 27° |
| 2026-05-09 07:36 | 35.41786 | -77.55172 | 41054 ft | 545 kts | 27° |
| 2026-05-09 07:37 | 35.47739 | -77.49386 | 41052 ft | 544 kts | 27° |
| 2026-05-09 07:37 | 35.53642 | -77.43641 | 41036 ft | 544 kts | 27° |
| 2026-05-09 07:38 | 35.59573 | -77.37860 | 41069 ft | 544 kts | 27° |
| 2026-05-09 07:38 | 35.65531 | -77.32043 | 41035 ft | 547 kts | 27° |
| 2026-05-09 07:39 | 35.71474 | -77.26226 | 41037 ft | 548 kts | 27° |
| 2026-05-09 07:39 | 35.77447 | -77.20363 | 41038 ft | 548 kts | 28° |
| 2026-05-09 07:40 | 35.83363 | -77.14542 | 41057 ft | 546 kts | 28° |
| 2026-05-09 07:40 | 35.89318 | -77.08680 | 41041 ft | 547 kts | 28° |
| 2026-05-09 07:41 | 35.95541 | -77.03478 | 41050 ft | 534 kts | 20° |
| 2026-05-09 07:41 | 36.01878 | -76.98787 | 41048 ft | 532 kts | 19° |
| 2026-05-09 07:42 | 36.08281 | -76.94142 | 41048 ft | 533 kts | 19° |
| 2026-05-09 07:42 | 36.14663 | -76.89504 | 41045 ft | 535 kts | 19° |
| 2026-05-09 07:43 | 36.20000 | -76.85601 | 41037 ft | 535 kts | 19° |
| 2026-05-09 07:43 | 36.27458 | -76.80123 | 41070 ft | 534 kts | 19° |
| 2026-05-09 07:44 | 36.32773 | -76.76214 | 41042 ft | 534 kts | 19° |
| 2026-05-09 07:44 | 36.39186 | -76.71493 | 41041 ft | 535 kts | 19° |
| 2026-05-09 07:45 | 36.45549 | -76.66796 | 41041 ft | 535 kts | 19° |
| 2026-05-09 07:45 | 36.51959 | -76.62057 | 41047 ft | 535 kts | 19° |
| 2026-05-09 07:46 | 36.58392 | -76.57293 | 41056 ft | 536 kts | 19° |
| 2026-05-09 07:46 | 36.64771 | -76.52556 | 41054 ft | 536 kts | 19° |
| 2026-05-09 07:47 | 36.71192 | -76.47779 | 41084 ft | 536 kts | 19° |
| 2026-05-09 07:47 | 36.77558 | -76.43033 | 41057 ft | 535 kts | 19° |
| 2026-05-09 07:48 | 36.83970 | -76.38246 | 41055 ft | 536 kts | 19° |
| 2026-05-09 07:48 | 36.90339 | -76.33481 | 41057 ft | 536 kts | 19° |
| 2026-05-09 07:49 | 36.96758 | -76.28669 | 41056 ft | 536 kts | 20° |
| 2026-05-09 07:49 | 37.03163 | -76.23859 | 41054 ft | 536 kts | 20° |
| 2026-05-09 07:50 | 37.09518 | -76.19075 | 41025 ft | 536 kts | 20° |
| 2026-05-09 07:50 | 37.15923 | -76.14246 | 41032 ft | 537 kts | 20° |
| 2026-05-09 07:51 | 37.22335 | -76.09400 | 41027 ft | 537 kts | 20° |
| 2026-05-09 07:51 | 37.28703 | -76.04578 | 41022 ft | 537 kts | 20° |
| 2026-05-09 07:52 | 37.35119 | -75.99710 | 41023 ft | 537 kts | 20° |
| 2026-05-09 07:52 | 37.41516 | -75.94848 | 41020 ft | 539 kts | 20° |
| 2026-05-09 07:53 | 37.47947 | -75.89951 | 41029 ft | 540 kts | 20° |
| 2026-05-09 07:53 | 37.54374 | -75.85044 | 41034 ft | 540 kts | 20° |
| 2026-05-09 07:54 | 37.60767 | -75.80230 | 41037 ft | 539 kts | 19° |
| 2026-05-09 07:54 | 37.67232 | -75.75407 | 41036 ft | 538 kts | 19° |
| 2026-05-09 07:55 | 37.73676 | -75.70582 | 41034 ft | 538 kts | 20° |
| 2026-05-09 07:55 | 37.80131 | -75.65727 | 41039 ft | 538 kts | 20° |
| 2026-05-09 07:56 | 37.86534 | -75.60858 | 41031 ft | 543 kts | 22° |
| 2026-05-09 07:56 | 37.92826 | -75.55434 | 41036 ft | 548 kts | 25° |
| 2026-05-09 07:57 | 37.99028 | -75.49855 | 41065 ft | 548 kts | 25° |
| 2026-05-09 07:57 | 38.05289 | -75.44296 | 41009 ft | 549 kts | 24° |
| 2026-05-09 07:58 | 38.11612 | -75.38977 | 41018 ft | 545 kts | 22° |
| 2026-05-09 07:58 | 38.18015 | -75.33837 | 41018 ft | 544 kts | 21° |
| 2026-05-09 07:59 | 38.24511 | -75.29189 | 41027 ft | 526 kts | 10° |
| 2026-05-09 07:59 | 38.27945 | -75.27742 | 41027 ft | 508 kts | 0° |
| 2026-05-09 07:59 | 38.31391 | -75.26798 | 41027 ft | 503 kts | 358° |
| 2026-05-09 08:00 | 38.38225 | -75.25274 | 41022 ft | 500 kts | 356° |
| 2026-05-09 08:00 | 38.45104 | -75.23879 | 41028 ft | 499 kts | 356° |
| 2026-05-09 08:01 | 38.51958 | -75.22480 | 41019 ft | 498 kts | 356° |
| 2026-05-09 08:01 | 38.58777 | -75.21060 | 41017 ft | 498 kts | 356° |
| 2026-05-09 08:02 | 38.65623 | -75.19580 | 41017 ft | 503 kts | 360° |
| 2026-05-09 08:02 | 38.69045 | -75.18327 | 41009 ft | 518 kts | 9° |
| 2026-05-09 08:02 | 38.72358 | -75.16335 | 41010 ft | 536 kts | 20° |
| 2026-05-09 08:03 | 38.78493 | -75.10700 | 41004 ft | 548 kts | 27° |
| 2026-05-09 08:03 | 38.84557 | -75.04725 | 41045 ft | 549 kts | 28° |
| 2026-05-09 08:04 | 38.90584 | -74.98786 | 41013 ft | 548 kts | 28° |
| 2026-05-09 08:04 | 38.96644 | -74.92811 | 41006 ft | 548 kts | 28° |
| 2026-05-09 08:05 | 39.02702 | -74.86829 | 41005 ft | 548 kts | 28° |
| 2026-05-09 08:05 | 39.08721 | -74.80873 | 41009 ft | 548 kts | 28° |
| 2026-05-09 08:06 | 39.14685 | -74.74644 | 41006 ft | 552 kts | 31° |
| 2026-05-09 08:06 | 39.20520 | -74.68258 | 41002 ft | 552 kts | 31° |
| 2026-05-09 08:07 | 39.26354 | -74.61911 | 41016 ft | 551 kts | 31° |
| 2026-05-09 08:07 | 39.32227 | -74.55528 | 41001 ft | 549 kts | 31° |
| 2026-05-09 08:07 | 39.35148 | -74.52348 | 40768 ft | 544 kts | 31° |
| 2026-05-09 08:08 | 39.38041 | -74.49197 | 40112 ft | 545 kts | 31° |
| 2026-05-09 08:08 | 39.40952 | -74.46031 | 39331 ft | 548 kts | 31° |
| 2026-05-09 08:08 | 39.43939 | -74.43107 | 38574 ft | 537 kts | 19° |
| 2026-05-09 08:08 | 39.47267 | -74.41158 | 37790 ft | 509 kts | 4° |
| 2026-05-09 08:09 | 39.50659 | -74.40395 | 37051 ft | 479 kts | 349° |
| 2026-05-09 08:09 | 39.53843 | -74.40777 | 36283 ft | 451 kts | 334° |
| 2026-05-09 08:09 | 39.56672 | -74.42216 | 35496 ft | 425 kts | 319° |
| 2026-05-09 08:09 | 39.59011 | -74.44446 | 34704 ft | 415 kts | 311° |
| 2026-05-09 08:10 | 39.61467 | -74.46550 | 33835 ft | 435 kts | 324° |
| 2026-05-09 08:10 | 39.64439 | -74.47753 | 32815 ft | 461 kts | 340° |
| 2026-05-09 08:10 | 39.67704 | -74.47874 | 31786 ft | 489 kts | 356° |
| 2026-05-09 08:10 | 39.71097 | -74.46856 | 30835 ft | 510 kts | 10° |
| 2026-05-09 08:11 | 39.74409 | -74.45215 | 29984 ft | 516 kts | 15° |
| 2026-05-09 08:11 | 39.77559 | -74.42869 | 29140 ft | 528 kts | 30° |
| 2026-05-09 08:11 | 39.80408 | -74.39831 | 28429 ft | 529 kts | 36° |
| 2026-05-09 08:11 | 39.83008 | -74.36429 | 27752 ft | 530 kts | 43° |
| 2026-05-09 08:12 | 39.86935 | -74.28367 | 26428 ft | 534 kts | 64° |
| 2026-05-09 08:12 | 39.87922 | -74.23675 | 25501 ft | 541 kts | 81° |
| 2026-05-09 08:12 | 39.88003 | -74.18786 | 24737 ft | 539 kts | 97° |
| 2026-05-09 08:13 | 39.87250 | -74.14041 | 24049 ft | 532 kts | 108° |
| 2026-05-09 08:13 | 39.86259 | -74.09411 | 23332 ft | 528 kts | 107° |
| 2026-05-09 08:13 | 39.85366 | -74.04805 | 22568 ft | 523 kts | 102° |
| 2026-05-09 08:13 | 39.85146 | -74.00103 | 21855 ft | 519 kts | 86° |
| 2026-05-09 08:14 | 39.85817 | -73.95605 | 21247 ft | 508 kts | 69° |
| 2026-05-09 08:14 | 39.87342 | -73.91562 | 20940 ft | 486 kts | 52° |
| 2026-05-09 08:14 | 39.89525 | -73.88369 | 20662 ft | 461 kts | 34° |
| 2026-05-09 08:14 | 39.92166 | -73.86237 | 20378 ft | 429 kts | 15° |
| 2026-05-09 08:15 | 39.94908 | -73.85339 | 19955 ft | 385 kts | 355° |
| 2026-05-09 08:15 | 39.97477 | -73.85355 | 19570 ft | 359 kts | 351° |
| 2026-05-09 08:15 | 39.99924 | -73.85131 | 19034 ft | 354 kts | 359° |
| 2026-05-09 08:15 | 40.02297 | -73.85083 | 18203 ft | 330 kts | 338° |
| 2026-05-09 08:16 | 40.04474 | -73.85860 | 17330 ft | 321 kts | 334° |
| 2026-05-09 08:16 | 40.06622 | -73.86621 | 16534 ft | 318 kts | 338° |
| 2026-05-09 08:16 | 40.08770 | -73.87254 | 15768 ft | 315 kts | 340° |
| 2026-05-09 08:16 | 40.10911 | -73.87799 | 15008 ft | 311 kts | 342° |
| 2026-05-09 08:17 | 40.13001 | -73.88282 | 14274 ft | 308 kts | 343° |
| 2026-05-09 08:17 | 40.15107 | -73.88740 | 13509 ft | 304 kts | 344° |
| 2026-05-09 08:17 | 40.17185 | -73.89177 | 12677 ft | 301 kts | 345° |
| 2026-05-09 08:17 | 40.19236 | -73.89601 | 11846 ft | 299 kts | 345° |
| 2026-05-09 08:18 | 40.21289 | -73.90020 | 11039 ft | 297 kts | 345° |
| 2026-05-09 08:18 | 40.23322 | -73.90433 | 10287 ft | 294 kts | 345° |
| 2026-05-09 08:18 | 40.25347 | -73.90842 | 9486 ft | 292 kts | 345° |
| 2026-05-09 08:18 | 40.27353 | -73.91247 | 8643 ft | 290 kts | 345° |
| 2026-05-09 08:19 | 40.29322 | -73.91644 | 7833 ft | 288 kts | 345° |
| 2026-05-09 08:19 | 40.31297 | -73.92043 | 7057 ft | 286 kts | 345° |
| 2026-05-09 08:19 | 40.33264 | -73.92440 | 6282 ft | 285 kts | 345° |
| 2026-05-09 08:19 | 40.35227 | -73.92838 | 5475 ft | 284 kts | 345° |
| 2026-05-09 08:20 | 40.37148 | -73.93225 | 4768 ft | 280 kts | 344° |
| 2026-05-09 08:20 | 40.39064 | -73.93612 | 4300 ft | 274 kts | 344° |
| 2026-05-09 08:20 | 40.40917 | -73.93981 | 4161 ft | 262 kts | 344° |
| 2026-05-09 08:20 | 40.42677 | -73.94331 | 4032 ft | 248 kts | 343° |
| 2026-05-09 08:21 | 40.44326 | -73.94663 | 3943 ft | 237 kts | 345° |
| 2026-05-09 08:21 | 40.45931 | -73.94990 | 3742 ft | 230 kts | 345° |
| 2026-05-09 08:21 | 40.47509 | -73.95316 | 3524 ft | 229 kts | 345° |
| 2026-05-09 08:21 | 40.49090 | -73.95644 | 3313 ft | 230 kts | 346° |
| 2026-05-09 08:22 | 40.50669 | -73.95968 | 3101 ft | 229 kts | 346° |
| 2026-05-09 08:22 | 40.52267 | -73.96181 | 2909 ft | 231 kts | 359° |
| 2026-05-09 08:22 | 40.53764 | -73.95613 | 2853 ft | 221 kts | 26° |
| 2026-05-09 08:22 | 40.55043 | -73.94614 | 2789 ft | 211 kts | 31° |
| 2026-05-09 08:23 | 40.56258 | -73.93605 | 2667 ft | 197 kts | 31° |
| 2026-05-09 08:23 | 40.57381 | -73.92676 | 2452 ft | 186 kts | 31° |
| 2026-05-09 08:23 | 40.58460 | -73.91791 | 2234 ft | 180 kts | 30° |
| 2026-05-09 08:23 | 40.59484 | -73.90954 | 2029 ft | 167 kts | 31° |
| 2026-05-09 08:24 | 40.60470 | -73.90150 | 1979 ft | 167 kts | 30° |
| 2026-05-09 08:24 | 40.61451 | -73.89371 | 1899 ft | 163 kts | 29° |
| 2026-05-09 08:24 | 40.62335 | -73.88637 | 1730 ft | 154 kts | 30° |
| 2026-05-09 08:24 | 40.62829 | -73.88251 | 1559 ft | 153 kts | 29° |
| 2026-05-09 08:25 | 40.63710 | -73.87558 | 1402 ft | 150 kts | 31° |
| 2026-05-09 08:25 | 40.64566 | -73.86809 | 1249 ft | 148 kts | 38° |
| 2026-05-09 08:25 | 40.65215 | -73.85780 | 1068 ft | 148 kts | 64° |
| 2026-05-09 08:25 | 40.65492 | -73.84482 | 723 ft | 147 kts | 88° |
| 2026-05-09 08:26 | 40.65381 | -73.83182 | 466 ft | 139 kts | 105° |
| 2026-05-09 08:26 | 40.64996 | -73.82047 | 232 ft | 132 kts | 118° |
| 2026-05-09 08:26 | 40.64533 | -73.81010 | 92 ft | 131 kts | 120° |
| 2026-05-09 08:26 | 40.64077 | -73.79996 | 29 ft | 124 kts | 121° |
| 2026-05-09 08:27 | 40.63740 | -73.79247 | 27 ft | 74 kts | 121° |
| 2026-05-09 08:27 | 40.63571 | -73.78877 | 30 ft | 24 kts | 121° |
| 2026-05-09 08:27 | 40.63449 | -73.78610 | 29 ft | 43 kts | 121° |
| 2026-05-09 08:27 | 40.63321 | -73.78331 | 28 ft | 19 kts | 121° |
| 2026-05-09 08:28 | 40.63270 | -73.78177 | 28 ft | 8 kts | 86° |
| 2026-05-09 08:28 | 40.63286 | -73.78119 | 28 ft | 12 kts | 50° |
| 2026-05-09 08:28 | 40.63303 | -73.78107 | 28 ft | 8 kts | 27° |
| 2026-05-09 08:28 | 40.63373 | -73.78059 | 27 ft | 13 kts | 28° |
| 2026-05-09 08:29 | 40.63407 | -73.77976 | 27 ft | 11 kts | 78° |
| 2026-05-09 08:29 | 40.63439 | -73.77883 | 27 ft | 10 kts | 49° |
| 2026-05-09 08:29 | 40.63501 | -73.77831 | 27 ft | 12 kts | 30° |
| 2026-05-09 08:29 | 40.63586 | -73.77766 | 26 ft | 16 kts | 31° |
| 2026-05-09 08:30 | 40.63688 | -73.77685 | 26 ft | 18 kts | 31° |
| 2026-05-09 08:30 | 40.63806 | -73.77592 | 26 ft | 21 kts | 31° |
| 2026-05-09 08:30 | 40.63938 | -73.77489 | 27 ft | 17 kts | 31° |
| 2026-05-09 08:30 | 40.63980 | -73.77456 | 27 ft | 11 kts | 31° |
| 2026-05-09 08:31 | 40.64008 | -73.77433 | 27 ft | 0 kts | 31° |
| 2026-05-09 08:32 | 40.64015 | -73.77428 | 27 ft | 8 kts | 31° |
| 2026-05-09 08:32 | 40.64065 | -73.77434 | 27 ft | 6 kts | 324° |
| 2026-05-09 08:32 | 40.64063 | -73.77513 | 26 ft | 6 kts | 224° |
| 2026-05-09 08:33 | 40.64038 | -73.77566 | 27 ft | 7 kts | 266° |
| 2026-05-09 08:33 | 40.64065 | -73.77611 | 27 ft | 7 kts | 322° |
| 2026-05-09 08:33 | 40.64092 | -73.77632 | 27 ft | 0 kts | 329° |